createdAt,value
2023-02-02T00:01:35.694Z,5.51
2023-02-02T00:04:38.803Z,5.44
2023-02-02T00:07:41.304Z,5.43
2023-02-02T00:10:45.352Z,5.40
2023-02-02T00:13:47.918Z,5.56
2023-02-02T00:16:53.071Z,5.43
2023-02-02T00:19:55.632Z,5.46
2023-02-02T00:22:58.736Z,5.44
2023-02-02T00:26:01.314Z,5.37
2023-02-02T00:29:05.538Z,5.44
2023-02-02T00:32:08.077Z,5.46
2023-02-02T00:35:11.186Z,5.42
2023-02-02T00:38:14.336Z,5.42
2023-02-02T00:41:17.580Z,5.58
2023-02-02T00:44:38.590Z,5.57
2023-02-02T00:47:50.512Z,5.57
2023-02-02T00:50:53.791Z,5.60
2023-02-02T00:53:56.924Z,5.58
2023-02-02T00:56:59.602Z,5.61
2023-02-02T01:00:04.210Z,5.56
2023-02-02T01:03:07.127Z,5.60
2023-02-02T01:06:10.631Z,5.49
2023-02-02T01:09:13.327Z,5.49
2023-02-02T01:12:16.546Z,5.42
2023-02-02T01:15:19.631Z,5.37
2023-02-02T01:18:22.804Z,5.37
2023-02-02T01:21:26.232Z,5.49
2023-02-02T01:24:29.353Z,5.41
2023-02-02T01:27:32.005Z,5.46
2023-02-02T01:30:35.114Z,5.41
2023-02-02T01:33:38.425Z,5.38
2023-02-02T01:36:41.626Z,5.33
2023-02-02T01:39:44.273Z,5.28
2023-02-02T01:42:47.353Z,5.31
2023-02-02T01:45:51.337Z,5.24
2023-02-02T01:49:14.556Z,5.25
2023-02-02T01:52:20.896Z,5.13
2023-02-02T01:55:26.725Z,5.15
2023-02-02T01:58:34.459Z,5.18
2023-02-02T02:01:37.601Z,5.07
2023-02-02T02:04:42.393Z,5.13
2023-02-02T02:07:48.410Z,5.07
2023-02-02T02:10:51.740Z,5.05
2023-02-02T02:14:15.976Z,5.07
2023-02-02T02:17:44.897Z,5.12
2023-02-02T02:21:32.301Z,5.10
2023-02-02T02:25:12.486Z,5.12
2023-02-02T02:28:34.693Z,5.14
2023-02-02T02:31:46.369Z,5.23
2023-02-02T02:35:29.142Z,5.30
2023-02-02T02:38:44.239Z,5.16
2023-02-02T02:41:51.617Z,5.16
2023-02-02T02:44:56.567Z,5.26
2023-02-02T02:47:59.932Z,5.15
2023-02-02T02:51:29.910Z,5.29
2023-02-02T02:54:45.665Z,5.28
2023-02-02T02:58:09.931Z,5.16
2023-02-02T03:01:30.270Z,5.07
2023-02-02T03:05:19.835Z,5.12
2023-02-02T03:08:38.000Z,5.06
2023-02-02T03:11:41.377Z,4.98
2023-02-02T03:14:44.267Z,5.01
2023-02-02T03:17:49.312Z,5.00
2023-02-02T03:20:52.136Z,5.14
2023-02-02T03:23:54.995Z,5.03
2023-02-02T03:26:57.977Z,4.99
2023-02-02T03:30:01.192Z,4.95
2023-02-02T03:33:05.448Z,4.99
2023-02-02T03:36:08.968Z,4.94
2023-02-02T03:39:11.648Z,4.95
2023-02-02T03:42:14.563Z,4.94
2023-02-02T03:45:17.943Z,4.80
2023-02-02T03:48:20.728Z,4.72
2023-02-02T03:51:23.603Z,4.69
2023-02-02T03:54:27.551Z,4.61
2023-02-02T03:57:30.816Z,4.57
2023-02-02T04:00:33.903Z,4.58
2023-02-02T04:03:37.112Z,4.62
2023-02-02T04:06:39.927Z,4.50
2023-02-02T04:09:43.009Z,4.44
2023-02-02T04:12:45.632Z,4.40
2023-02-02T04:15:56.057Z,4.38
2023-02-02T04:18:58.636Z,4.55
2023-02-02T04:22:01.750Z,4.43
2023-02-02T04:25:04.673Z,4.40
2023-02-02T04:28:07.622Z,4.42
2023-02-02T04:31:10.178Z,4.23
2023-02-02T04:34:13.302Z,4.29
2023-02-02T04:37:15.847Z,4.31
2023-02-02T04:40:19.394Z,4.16
2023-02-02T04:43:21.939Z,4.11
2023-02-02T04:46:26.613Z,4.25
2023-02-02T04:49:29.162Z,4.11
2023-02-02T04:52:32.344Z,4.21
2023-02-02T04:55:38.922Z,4.18
2023-02-02T04:58:45.036Z,4.08
2023-02-02T05:01:48.283Z,4.04
2023-02-02T05:04:51.431Z,4.08
2023-02-02T05:07:54.077Z,4.02
2023-02-02T05:10:57.184Z,4.03
2023-02-02T05:13:59.765Z,4.06
2023-02-02T05:17:02.905Z,4.10
2023-02-02T05:20:05.706Z,4.06
2023-02-02T05:23:08.789Z,4.01
2023-02-02T05:26:22.331Z,4.06
2023-02-02T05:29:25.675Z,4.16
2023-02-02T05:32:31.326Z,4.22
2023-02-02T05:35:34.530Z,4.21
2023-02-02T05:38:37.137Z,4.19
2023-02-02T05:41:40.304Z,4.34
2023-02-02T05:44:42.843Z,4.36
2023-02-02T05:47:45.989Z,4.33
2023-02-02T05:51:05.533Z,4.31
2023-02-02T05:54:08.931Z,4.33
2023-02-02T05:57:12.186Z,4.40
2023-02-02T06:00:15.703Z,4.41
2023-02-02T06:03:18.633Z,4.40
2023-02-02T06:06:21.478Z,4.31
2023-02-02T06:09:25.286Z,4.35
2023-02-02T06:12:28.292Z,4.27
2023-02-02T06:15:33.002Z,4.37
2023-02-02T06:18:36.869Z,4.27
2023-02-02T06:21:39.697Z,4.22
2023-02-02T06:24:42.802Z,4.23
2023-02-02T06:27:46.341Z,4.22
2023-02-02T06:30:49.257Z,4.26
2023-02-02T06:33:56.860Z,4.20
2023-02-02T06:36:59.692Z,4.20
2023-02-02T06:40:07.392Z,4.21
2023-02-02T06:43:11.557Z,4.29
2023-02-02T06:46:15.109Z,4.27
2023-02-02T06:49:18.004Z,4.37
2023-02-02T06:52:20.895Z,4.34
2023-02-02T06:55:23.989Z,4.32
2023-02-02T06:58:27.997Z,4.44
2023-02-02T07:01:30.965Z,4.42
2023-02-02T07:04:33.836Z,4.49
2023-02-02T07:07:36.728Z,4.46
2023-02-02T07:11:14.235Z,4.54
2023-02-02T07:14:05.075Z,4.68
2023-02-02T07:17:07.993Z,4.63
2023-02-02T07:20:11.483Z,4.80
2023-02-02T07:23:14.255Z,4.92
2023-02-02T07:26:19.330Z,4.94
2023-02-02T07:29:22.339Z,4.95
2023-02-02T07:32:26.513Z,5.16
2023-02-02T07:35:29.412Z,5.34
2023-02-02T07:38:34.636Z,5.43
2023-02-02T07:41:37.698Z,5.66
2023-02-02T07:44:49.243Z,5.81
2023-02-02T07:47:59.533Z,6.07
2023-02-02T07:51:06.234Z,6.39
2023-02-02T07:54:09.746Z,6.68
2023-02-02T07:57:13.828Z,7.09
2023-02-02T08:00:17.135Z,7.54
2023-02-02T08:03:21.010Z,8.14
2023-02-02T08:06:28.527Z,8.85
2023-02-02T08:09:33.080Z,9.71
2023-02-02T08:12:35.606Z,10.48
2023-02-02T08:15:38.726Z,11.06
2023-02-02T08:18:42.280Z,11.44
2023-02-02T08:21:45.477Z,12.29
2023-02-02T08:24:48.167Z,13.00
2023-02-02T08:27:55.598Z,13.96
2023-02-02T08:31:04.581Z,15.30
2023-02-02T08:34:07.852Z,18.11
2023-02-02T08:37:10.559Z,20.99
2023-02-02T08:40:13.810Z,22.36
2023-02-02T08:43:17.348Z,22.55
2023-02-02T08:46:21.587Z,22.17
2023-02-02T08:49:25.141Z,22.74
2023-02-02T08:52:28.408Z,20.91
2023-02-02T08:55:33.674Z,19.00
2023-02-02T08:58:37.400Z,17.55
2023-02-02T09:01:40.107Z,16.47
2023-02-02T09:04:45.690Z,15.48
2023-02-02T09:07:49.330Z,14.36
2023-02-02T09:10:56.865Z,13.62
2023-02-02T09:14:02.216Z,12.99
2023-02-02T09:17:05.402Z,12.34
2023-02-02T09:20:08.417Z,12.01
2023-02-02T09:23:12.801Z,11.82
2023-02-02T09:26:17.493Z,11.85
2023-02-02T09:29:21.378Z,11.74
2023-02-02T09:32:23.992Z,11.22
2023-02-02T09:35:27.562Z,11.23
2023-02-02T09:38:30.257Z,11.20
2023-02-02T09:41:33.257Z,10.93
2023-02-02T09:44:58.069Z,10.77
2023-02-02T09:48:07.476Z,10.63
2023-02-02T09:51:15.993Z,10.45
2023-02-02T09:54:50.244Z,10.33
2023-02-02T09:58:01.759Z,10.18
2023-02-02T10:01:10.320Z,10.02
2023-02-02T10:04:24.833Z,10.05
2023-02-02T10:07:35.129Z,10.06
2023-02-02T10:10:43.536Z,10.04
2023-02-02T10:13:48.898Z,9.99
2023-02-02T10:16:54.967Z,9.92
2023-02-02T10:20:06.711Z,9.79
2023-02-02T10:23:40.289Z,9.73
2023-02-02T10:26:48.740Z,9.69
2023-02-02T10:30:00.189Z,9.61
2023-02-02T10:33:03.561Z,9.69
2023-02-02T10:36:22.807Z,9.53
2023-02-02T10:40:04.357Z,9.46
2023-02-02T10:43:52.538Z,9.42
2023-02-02T10:46:58.589Z,9.57
2023-02-02T10:50:13.562Z,10.18
2023-02-02T10:53:17.046Z,12.49
2023-02-02T10:56:26.741Z,14.41
2023-02-02T10:59:59.602Z,15.19
2023-02-02T11:03:04.819Z,15.83
2023-02-02T11:06:27.624Z,16.05
2023-02-02T11:09:39.663Z,16.04
2023-02-02T11:12:50.124Z,16.06
2023-02-02T11:16:15.621Z,16.06
2023-02-02T11:19:19.724Z,15.93
2023-02-02T11:22:28.189Z,16.07
2023-02-02T11:25:33.972Z,16.14
2023-02-02T11:28:37.427Z,16.18
2023-02-02T11:31:40.370Z,16.18
2023-02-02T11:34:43.640Z,16.22
2023-02-02T11:37:57.490Z,15.98
2023-02-02T11:41:11.124Z,16.45
2023-02-02T11:44:40.396Z,16.89
2023-02-02T11:47:45.733Z,17.26
2023-02-02T11:50:51.466Z,16.91
2023-02-02T11:54:17.657Z,16.12
2023-02-02T11:57:25.537Z,14.96
2023-02-02T12:00:28.802Z,14.08
2023-02-02T12:03:38.188Z,13.26
2023-02-02T12:06:41.011Z,12.80
2023-02-02T12:09:44.448Z,12.25
2023-02-02T12:12:56.251Z,11.63
2023-02-02T12:16:28.292Z,11.19
2023-02-02T12:20:02.447Z,10.86
2023-02-02T12:23:14.632Z,10.51
2023-02-02T12:26:30.756Z,10.13
2023-02-02T12:30:31.129Z,9.96
2023-02-02T12:33:33.612Z,9.75
2023-02-02T12:37:04.475Z,9.36
2023-02-02T12:40:22.398Z,9.20
2023-02-02T12:43:40.952Z,9.21
2023-02-02T12:46:57.112Z,8.97
2023-02-02T12:50:31.225Z,8.80
2023-02-02T12:54:34.782Z,8.90
2023-02-02T12:57:32.807Z,8.79
2023-02-02T13:01:00.044Z,8.51
2023-02-02T13:08:06.248Z,8.33
2023-02-02T13:11:32.902Z,8.24
2023-02-02T13:14:38.280Z,8.14
2023-02-02T13:17:55.093Z,8.00
2023-02-02T13:21:05.130Z,7.98
2023-02-02T13:24:15.991Z,8.05
2023-02-02T13:27:21.213Z,7.92
2023-02-02T13:30:39.478Z,7.86
2023-02-02T13:33:48.500Z,8.04
2023-02-02T13:37:17.163Z,8.04
2023-02-02T13:40:32.681Z,7.97
2023-02-02T13:43:42.588Z,7.74
2023-02-02T13:46:52.889Z,7.68
2023-02-02T13:50:05.778Z,7.73
2023-02-02T13:53:29.738Z,7.59
2023-02-02T13:56:52.051Z,7.90
2023-02-02T14:00:19.185Z,7.93
2023-02-02T14:03:29.833Z,8.15
2023-02-02T14:06:56.174Z,8.21
2023-02-02T14:09:59.571Z,8.21
2023-02-02T14:13:32.983Z,8.31
2023-02-02T14:16:35.964Z,8.30
2023-02-02T14:19:44.314Z,8.32
2023-02-02T14:22:50.869Z,8.34
2023-02-02T14:26:19.740Z,8.23
2023-02-02T14:29:31.959Z,8.25
2023-02-02T14:32:42.794Z,8.08
2023-02-02T14:35:45.861Z,7.95
2023-02-02T14:39:00.101Z,7.91
2023-02-02T14:43:03.794Z,7.88
2023-02-02T14:46:15.829Z,7.86
2023-02-02T14:49:24.518Z,7.69
2023-02-02T14:52:27.346Z,7.66
2023-02-02T14:55:31.007Z,7.53
2023-02-02T14:58:44.115Z,7.47
2023-02-02T15:01:59.403Z,7.53
2023-02-02T15:05:38.760Z,7.47
2023-02-02T15:08:41.963Z,7.55
2023-02-02T15:12:01.612Z,7.48
2023-02-02T15:15:17.713Z,7.36
2023-02-02T15:18:33.208Z,7.29
2023-02-02T15:21:40.638Z,7.40
2023-02-02T15:24:46.066Z,7.22
2023-02-02T15:28:09.128Z,7.11
2023-02-02T15:31:11.884Z,6.99
2023-02-02T15:34:24.870Z,7.10
2023-02-02T15:37:40.086Z,6.95
2023-02-02T15:40:44.215Z,7.13
2023-02-02T15:43:46.962Z,6.96
2023-02-02T15:46:51.041Z,6.89
2023-02-02T15:49:53.635Z,6.83
2023-02-02T15:52:56.966Z,6.87
2023-02-02T15:56:00.054Z,6.78
2023-02-02T15:59:20.293Z,6.83
2023-02-02T16:02:36.610Z,6.77
2023-02-02T16:05:39.691Z,7.02
2023-02-02T16:08:42.384Z,6.84
2023-02-02T16:11:47.679Z,6.59
2023-02-02T16:14:55.360Z,6.56
2023-02-02T16:18:02.838Z,6.53
2023-02-02T16:21:15.978Z,6.33
2023-02-02T16:24:24.386Z,6.23
2023-02-02T16:27:29.101Z,6.16
2023-02-02T16:30:39.023Z,6.12
2023-02-02T16:33:43.484Z,6.11
2023-02-02T16:37:05.336Z,6.22
2023-02-02T16:40:27.452Z,6.33
2023-02-02T16:43:30.939Z,6.22
2023-02-02T16:46:47.310Z,6.26
2023-02-02T16:49:50.750Z,6.23
2023-02-02T16:53:03.820Z,6.11
2023-02-02T16:56:09.042Z,6.06
2023-02-02T16:59:25.404Z,6.20
2023-02-02T17:02:40.835Z,6.14
2023-02-02T17:05:53.553Z,5.94
2023-02-02T17:08:56.746Z,6.09
2023-02-02T17:12:32.815Z,6.00
2023-02-02T17:15:37.124Z,5.90
2023-02-02T17:18:40.078Z,5.93
2023-02-02T17:21:43.373Z,5.91
2023-02-02T17:24:48.355Z,5.81
2023-02-02T17:27:51.948Z,5.83
2023-02-02T17:31:02.244Z,5.74
2023-02-02T17:34:16.390Z,5.90
2023-02-02T17:37:18.998Z,5.81
2023-02-02T17:40:23.830Z,5.72
2023-02-02T17:43:27.222Z,5.71
2023-02-02T17:46:33.630Z,5.70
2023-02-02T17:49:36.296Z,5.67
2023-02-02T17:52:39.870Z,5.62
2023-02-02T17:55:44.313Z,5.78
2023-02-02T17:58:47.393Z,5.66
2023-02-02T18:01:50.768Z,5.69
2023-02-02T18:04:53.956Z,5.69
2023-02-02T18:07:56.459Z,5.63
2023-02-02T18:10:59.872Z,5.55
2023-02-02T18:14:02.678Z,5.45
2023-02-02T18:17:05.972Z,5.45
2023-02-02T18:20:10.063Z,5.46
2023-02-02T18:23:13.679Z,5.34
2023-02-02T18:26:18.817Z,5.36
2023-02-02T18:29:21.957Z,5.31
2023-02-02T18:32:25.053Z,5.30
2023-02-02T18:35:28.528Z,5.33
2023-02-02T18:38:31.180Z,5.37
2023-02-02T18:41:34.448Z,5.29
2023-02-02T18:44:38.489Z,5.26
2023-02-02T18:47:41.733Z,5.33
2023-02-02T18:50:44.310Z,5.32
2023-02-02T18:53:48.138Z,5.37
2023-02-02T18:56:50.702Z,5.38
2023-02-02T18:59:54.005Z,5.30
2023-02-02T19:02:56.573Z,5.25
2023-02-02T19:06:29.131Z,5.34
2023-02-02T19:09:32.019Z,5.32
2023-02-02T19:12:35.171Z,5.32
2023-02-02T19:15:39.414Z,5.21
2023-02-02T19:18:42.985Z,5.19
2023-02-02T19:21:45.662Z,5.16
2023-02-02T19:24:50.052Z,5.17
2023-02-02T19:27:52.714Z,5.19
2023-02-02T19:30:58.524Z,5.22
2023-02-02T19:34:03.622Z,5.08
2023-02-02T19:37:26.373Z,5.08
2023-02-02T19:40:29.139Z,5.06
2023-02-02T19:43:33.162Z,5.15
2023-02-02T19:46:42.020Z,5.07
2023-02-02T19:49:45.269Z,5.01
2023-02-02T19:52:49.725Z,5.00
2023-02-02T19:55:52.996Z,5.04
2023-02-02T19:58:55.682Z,4.93
2023-02-02T20:02:03.736Z,4.97
2023-02-02T20:05:17.545Z,4.94
2023-02-02T20:08:38.284Z,4.94
2023-02-02T20:11:44.364Z,5.06
2023-02-02T20:14:48.157Z,4.85
2023-02-02T20:17:54.439Z,4.78
2023-02-02T20:20:58.088Z,4.85
2023-02-02T20:24:01.295Z,4.80
2023-02-02T20:27:18.105Z,4.73
2023-02-02T20:30:30.879Z,4.72
2023-02-02T20:33:34.201Z,4.71
2023-02-02T20:36:40.279Z,4.72
2023-02-02T20:40:07.823Z,4.74
2023-02-02T20:43:12.465Z,4.83
2023-02-02T20:46:16.205Z,4.83
2023-02-02T20:49:20.762Z,4.81
2023-02-02T20:52:24.169Z,4.78
2023-02-02T20:55:28.389Z,4.72
2023-02-02T20:58:31.769Z,4.71
2023-02-02T21:01:34.805Z,4.81
2023-02-02T21:04:39.021Z,4.74
2023-02-02T21:07:41.840Z,4.75
2023-02-02T21:10:44.621Z,4.68
2023-02-02T21:13:50.180Z,4.68
2023-02-02T21:17:02.369Z,4.57
2023-02-02T21:20:15.910Z,4.56
2023-02-02T21:23:18.798Z,4.57
2023-02-02T21:26:26.528Z,4.60
2023-02-02T21:29:31.418Z,4.58
2023-02-02T21:32:34.102Z,4.52
2023-02-02T21:35:37.706Z,4.53
2023-02-02T21:38:40.346Z,4.58
2023-02-02T21:41:43.887Z,4.55
2023-02-02T21:45:21.983Z,4.51
2023-02-02T21:48:32.841Z,4.66
2023-02-02T21:51:37.523Z,4.58
2023-02-02T21:54:41.113Z,4.53
2023-02-02T21:57:43.713Z,4.52
2023-02-02T22:00:47.265Z,4.53
2023-02-02T22:03:51.036Z,4.51
2023-02-02T22:07:00.666Z,4.61
2023-02-02T22:10:25.472Z,4.51
2023-02-02T22:13:34.881Z,4.52
2023-02-02T22:16:43.746Z,4.46
2023-02-02T22:19:46.942Z,4.44
2023-02-02T22:22:51.389Z,4.42
2023-02-02T22:25:58.545Z,4.47
2023-02-02T22:29:07.200Z,4.39
2023-02-02T22:32:10.023Z,4.40
2023-02-02T22:35:13.036Z,4.24
2023-02-02T22:38:18.234Z,4.38
2023-02-02T22:41:21.184Z,4.38
2023-02-02T22:44:24.082Z,4.20
2023-02-02T22:47:27.314Z,4.20
2023-02-02T22:50:31.708Z,4.29
2023-02-02T22:53:34.727Z,4.39
2023-02-02T22:56:37.784Z,4.31
2023-02-02T22:59:40.580Z,4.25
2023-02-02T23:02:43.979Z,4.26
2023-02-02T23:05:46.750Z,4.38
2023-02-02T23:08:49.594Z,4.20
2023-02-02T23:11:52.599Z,4.21
2023-02-02T23:14:55.417Z,4.14
2023-02-02T23:17:58.313Z,4.17
2023-02-02T23:21:01.176Z,4.21
2023-02-02T23:24:04.292Z,4.30
2023-02-02T23:27:07.079Z,4.08
2023-02-02T23:30:11.763Z,3.98
2023-02-02T23:33:14.548Z,3.98
2023-02-02T23:36:24.638Z,3.87
2023-02-02T23:39:33.284Z,3.90
2023-02-02T23:42:42.086Z,3.98
2023-02-02T23:46:00.258Z,4.04
2023-02-02T23:49:03.415Z,3.84
2023-02-02T23:52:06.607Z,3.80
2023-02-02T23:55:10.190Z,3.79
2023-02-02T23:58:13.645Z,3.80
